sensor_id;sensor_type;location;lat;lon;timestamp;pressure;altitude;pressure_sealevel;temperature;humidity
20013;BME280;10167;42.852;23.042;2023-11-21T18:17:34;94205.19;;;7.55;100.00
20013;BME280;10167;42.852;23.042;2023-11-21T18:20:04;94202.31;;;7.56;100.00
20013;BME280;10167;42.852;23.042;2023-11-21T18:22:33;94207.47;;;7.63;100.00
20013;BME280;10167;42.852;23.042;2023-11-21T18:25:04;94201.16;;;7.64;100.00
20013;BME280;10167;42.852;23.042;2023-11-21T18:27:33;94204.81;;;7.63;100.00
20013;BME280;10167;42.852;23.042;2023-11-21T18:30:03;94202.41;;;7.61;100.00
20013;BME280;10167;42.852;23.042;2023-11-21T18:32:35;94204.25;;;7.61;100.00
20013;BME280;10167;42.852;23.042;2023-11-21T18:35:05;94215.75;;;7.55;100.00
20013;BME280;10167;42.852;23.042;2023-11-21T18:37:34;94212.06;;;7.56;100.00
20013;BME280;10167;42.852;23.042;2023-11-21T18:40:04;94212.38;;;7.59;100.00
20013;BME280;10167;42.852;23.042;2023-11-21T18:42:33;94207.13;;;7.59;100.00
20013;BME280;10167;42.852;23.042;2023-11-21T18:45:03;94206.09;;;7.60;100.00
20013;BME280;10167;42.852;23.042;2023-11-21T18:47:32;94190.28;;;7.60;100.00
20013;BME280;10167;42.852;23.042;2023-11-21T18:50:04;94196.13;;;7.62;100.00
20013;BME280;10167;42.852;23.042;2023-11-21T18:52:33;94198.28;;;7.65;100.00
20013;BME280;10167;42.852;23.042;2023-11-21T18:55:03;94196.69;;;7.64;100.00
20013;BME280;10167;42.852;23.042;2023-11-21T18:57:32;94191.78;;;7.56;100.00
20013;BME280;10167;42.852;23.042;2023-11-21T19:00:04;94184.34;;;7.53;100.00
20013;BME280;10167;42.852;23.042;2023-11-21T19:02:40;94189.63;;;7.53;100.00
20013;BME280;10167;42.852;23.042;2023-11-21T19:05:12;94198.91;;;7.56;100.00
20013;BME280;10167;42.852;23.042;2023-11-21T19:07:41;94187.69;;;7.49;100.00
20013;BME280;10167;42.852;23.042;2023-11-21T19:10:11;94192.16;;;7.48;100.00
20013;BME280;10167;42.852;23.042;2023-11-21T19:12:40;94200.28;;;7.47;100.00
20013;BME280;10167;42.852;23.042;2023-11-21T19:15:10;94205.66;;;7.52;100.00
20013;BME280;10167;42.852;23.042;2023-11-21T19:17:40;94202.28;;;7.28;100.00
20013;BME280;10167;42.852;23.042;2023-11-21T19:20:12;94197.13;;;7.33;100.00
20013;BME280;10167;42.852;23.042;2023-11-21T19:22:41;94197.44;;;7.37;100.00
20013;BME280;10167;42.852;23.042;2023-11-21T19:25:10;94205.03;;;7.33;100.00
20013;BME280;10167;42.852;23.042;2023-11-21T19:27:40;94197.13;;;7.33;100.00
20013;BME280;10167;42.852;23.042;2023-11-21T19:30:10;94214.78;;;7.33;100.00
20013;BME280;10167;42.852;23.042;2023-11-21T19:32:40;94205.72;;;7.28;100.00
20013;BME280;10167;42.852;23.042;2023-11-21T19:35:12;94201.34;;;7.34;100.00
20013;BME280;10167;42.852;23.042;2023-11-21T19:37:41;94200.88;;;7.37;100.00
20013;BME280;10167;42.852;23.042;2023-11-21T19:40:12;94206.97;;;7.26;100.00
20013;BME280;10167;42.852;23.042;2023-11-21T19:42:41;94204.34;;;7.26;100.00
20013;BME280;10167;42.852;23.042;2023-11-21T19:45:10;94195.16;;;7.40;100.00
20013;BME280;10167;42.852;23.042;2023-11-21T19:47:40;94199.06;;;7.38;100.00
20013;BME280;10167;42.852;23.042;2023-11-21T19:50:09;94189.25;;;7.33;100.00
20013;BME280;10167;42.852;23.042;2023-11-21T19:52:40;94189.91;;;7.40;100.00
20013;BME280;10167;42.852;23.042;2023-11-21T19:55:09;94186.22;;;7.41;100.00
20013;BME280;10167;42.852;23.042;2023-11-21T19:57:40;94195.63;;;7.37;100.00
20013;BME280;10167;42.852;23.042;2023-11-21T20:00:11;94193.56;;;7.39;100.00
20013;BME280;10167;42.852;23.042;2023-11-21T20:02:42;94181.41;;;7.38;100.00
20013;BME280;10167;42.852;23.042;2023-11-21T20:05:12;94183.69;;;7.46;100.00
20013;BME280;10167;42.852;23.042;2023-11-21T20:07:44;94185.78;;;7.44;100.00
20013;BME280;10167;42.852;23.042;2023-11-21T20:10:13;94184.25;;;7.48;100.00
20013;BME280;10167;42.852;23.042;2023-11-21T20:12:43;94197.00;;;7.40;100.00
20013;BME280;10167;42.852;23.042;2023-11-21T20:15:22;94190.44;;;7.54;100.00
20013;BME280;10167;42.852;23.042;2023-11-21T20:17:53;94189.06;;;7.51;100.00
20013;BME280;10167;42.852;23.042;2023-11-21T20:20:22;94188.25;;;7.51;100.00
20013;BME280;10167;42.852;23.042;2023-11-21T20:22:52;94187.00;;;7.53;100.00
20013;BME280;10167;42.852;23.042;2023-11-21T20:25:22;94192.31;;;7.42;100.00
20013;BME280;10167;42.852;23.042;2023-11-21T20:27:51;94198.97;;;7.33;100.00
20013;BME280;10167;42.852;23.042;2023-11-21T20:30:21;94194.81;;;7.37;100.00
20013;BME280;10167;42.852;23.042;2023-11-21T20:32:50;94194.13;;;7.41;100.00
20013;BME280;10167;42.852;23.042;2023-11-21T20:35:20;94199.28;;;7.36;100.00
20013;BME280;10167;42.852;23.042;2023-11-21T20:37:52;94201.34;;;7.34;100.00
20013;BME280;10167;42.852;23.042;2023-11-21T20:40:21;94200.66;;;7.39;100.00
20013;BME280;10167;42.852;23.042;2023-11-21T20:42:52;94207.06;;;7.43;100.00
20013;BME280;10167;42.852;23.042;2023-11-21T20:45:21;94203.53;;;7.37;100.00
20013;BME280;10167;42.852;23.042;2023-11-21T20:47:51;94206.13;;;7.49;100.00
20013;BME280;10167;42.852;23.042;2023-11-21T20:50:21;94205.25;;;7.43;100.00
20013;BME280;10167;42.852;23.042;2023-11-21T20:52:52;94205.00;;;7.45;100.00
20013;BME280;10167;42.852;23.042;2023-11-21T20:55:21;94199.03;;;7.49;100.00
20013;BME280;10167;42.852;23.042;2023-11-21T20:57:50;94198.03;;;7.39;100.00
20013;BME280;10167;42.852;23.042;2023-11-21T21:00:20;94187.03;;;7.42;100.00
20013;BME280;10167;42.852;23.042;2023-11-21T21:02:53;94182.00;;;7.40;100.00
20013;BME280;10167;42.852;23.042;2023-11-21T21:05:23;94183.81;;;7.40;100.00
20013;BME280;10167;42.852;23.042;2023-11-21T21:07:55;94190.25;;;7.44;100.00
20013;BME280;10167;42.852;23.042;2023-11-21T21:10:25;94200.19;;;7.42;100.00
20013;BME280;10167;42.852;23.042;2023-11-21T21:12:56;94198.59;;;7.41;100.00
20013;BME280;10167;42.852;23.042;2023-11-21T21:15:25;94203.41;;;7.44;100.00
20013;BME280;10167;42.852;23.042;2023-11-21T21:17:54;94209.78;;;7.48;100.00
20013;BME280;10167;42.852;23.042;2023-11-21T21:20:25;94207.16;;;7.48;100.00
20013;BME280;10167;42.852;23.042;2023-11-21T21:22:58;94200.44;;;7.40;100.00
20013;BME280;10167;42.852;23.042;2023-11-21T21:25:29;94202.69;;;7.48;100.00
20013;BME280;10167;42.852;23.042;2023-11-21T21:27:59;94204.53;;;7.48;100.00
20013;BME280;10167;42.852;23.042;2023-11-21T21:30:29;94198.44;;;7.47;100.00
20013;BME280;10167;42.852;23.042;2023-11-21T21:33:03;94194.69;;;7.43;100.00
20013;BME280;10167;42.852;23.042;2023-11-21T21:35:36;94201.31;;;7.46;100.00
20013;BME280;10167;42.852;23.042;2023-11-21T21:38:06;94209.78;;;7.48;100.00
20013;BME280;10167;42.852;23.042;2023-11-21T21:40:37;94202.84;;;7.42;100.00
20013;BME280;10167;42.852;23.042;2023-11-21T21:43:06;94204.31;;;7.38;100.00
20013;BME280;10167;42.852;23.042;2023-11-21T21:45:37;94202.84;;;7.42;100.00
20013;BME280;10167;42.852;23.042;2023-11-21T21:48:06;94203.06;;;7.40;100.00
20013;BME280;10167;42.852;23.042;2023-11-21T21:50:35;94197.22;;;7.38;100.00
20013;BME280;10167;42.852;23.042;2023-11-21T21:53:06;94202.84;;;7.42;100.00
20013;BME280;10167;42.852;23.042;2023-11-21T21:55:40;94202.03;;;7.41;100.00
20013;BME280;10167;42.852;23.042;2023-11-21T21:58:09;94193.78;;;7.38;100.00
20013;BME280;10167;42.852;23.042;2023-11-21T22:00:39;94205.94;;;7.39;100.00
20013;BME280;10167;42.852;23.042;2023-11-21T22:03:08;94196.66;;;7.36;100.00
20013;BME280;10167;42.852;23.042;2023-11-21T22:05:40;94197.56;;;7.42;100.00
20013;BME280;10167;42.852;23.042;2023-11-21T22:08:10;94197.72;;;7.23;100.00
20013;BME280;10167;42.852;23.042;2023-11-21T22:10:39;94185.53;;;7.34;100.00
20013;BME280;10167;42.852;23.042;2023-11-21T22:13:08;94194.03;;;7.36;100.00
20013;BME280;10167;42.852;23.042;2023-11-21T22:15:38;94194.25;;;7.35;100.00
20013;BME280;10167;42.852;23.042;2023-11-21T22:18:08;94184.50;;;7.35;100.00
20013;BME280;10167;42.852;23.042;2023-11-21T22:20:38;94191.50;;;7.41;100.00
20013;BME280;10167;42.852;23.042;2023-11-21T22:23:07;94192.94;;;7.49;100.00
20013;BME280;10167;42.852;23.042;2023-11-21T22:25:39;94191.56;;;7.46;100.00
20013;BME280;10167;42.852;23.042;2023-11-21T22:28:08;94191.13;;;7.49;100.00
20013;BME280;10167;42.852;23.042;2023-11-21T22:30:37;94202.22;;;7.51;100.00
20013;BME280;10167;42.852;23.042;2023-11-21T22:33:07;94195.94;;;7.52;100.00
20013;BME280;10167;42.852;23.042;2023-11-21T22:35:36;94190.25;;;7.44;100.00
20013;BME280;10167;42.852;23.042;2023-11-21T22:38:15;94185.03;;;7.49;100.00
20013;BME280;10167;42.852;23.042;2023-11-21T22:40:48;94177.59;;;7.46;100.00
20013;BME280;10167;42.852;23.042;2023-11-21T22:43:19;94172.03;;;7.42;100.00
20013;BME280;10167;42.852;23.042;2023-11-21T22:45:54;94178.19;;;7.48;100.00
20013;BME280;10167;42.852;23.042;2023-11-21T22:48:26;94197.56;;;7.42;100.00
20013;BME280;10167;42.852;23.042;2023-11-21T22:50:55;94200.06;;;7.48;100.00
20013;BME280;10167;42.852;23.042;2023-11-21T22:53:24;94189.50;;;7.48;100.00
20013;BME280;10167;42.852;23.042;2023-11-21T22:55:55;94194.66;;;7.55;100.00
20013;BME280;10167;42.852;23.042;2023-11-21T22:58:24;94184.03;;;7.50;100.00
20013;BME280;10167;42.852;23.042;2023-11-21T23:00:53;94175.78;;;7.46;100.00
20013;BME280;10167;42.852;23.042;2023-11-21T23:03:25;94168.13;;;7.45;100.00
20013;BME280;10167;42.852;23.042;2023-11-21T23:05:57;94150.63;;;7.39;100.00
20013;BME280;10167;42.852;23.042;2023-11-21T23:08:27;94159.50;;;7.49;100.00
20013;BME280;10167;42.852;23.042;2023-11-21T23:10:58;94164.13;;;7.42;100.00
20013;BME280;10167;42.852;23.042;2023-11-21T23:13:28;94175.13;;;7.39;100.00
20013;BME280;10167;42.852;23.042;2023-11-21T23:15:57;94177.41;;;7.36;100.00
20013;BME280;10167;42.852;23.042;2023-11-21T23:18:26;94185.28;;;7.47;100.00
20013;BME280;10167;42.852;23.042;2023-11-21T23:20:56;94183.44;;;7.48;100.00
20013;BME280;10167;42.852;23.042;2023-11-21T23:23:25;94188.59;;;7.54;100.00
20013;BME280;10167;42.852;23.042;2023-11-21T23:25:55;94188.72;;;7.48;100.00
20013;BME280;10167;42.852;23.042;2023-11-21T23:28:27;94180.63;;;7.38;100.00
20013;BME280;10167;42.852;23.042;2023-11-21T23:30:57;94178.41;;;7.46;100.00
20013;BME280;10167;42.852;23.042;2023-11-21T23:33:26;94169.47;;;7.47;100.00
20013;BME280;10167;42.852;23.042;2023-11-21T23:35:58;94168.81;;;7.40;100.00
20013;BME280;10167;42.852;23.042;2023-11-21T23:38:27;94161.81;;;7.46;100.00
20013;BME280;10167;42.852;23.042;2023-11-21T23:40:56;94165.25;;;7.46;100.00
20013;BME280;10167;42.852;23.042;2023-11-21T23:43:29;94173.63;;;7.43;100.00
20013;BME280;10167;42.852;23.042;2023-11-21T23:45:58;94177.88;;;7.44;100.00
20013;BME280;10167;42.852;23.042;2023-11-21T23:48:29;94168.72;;;7.35;100.00
20013;BME280;10167;42.852;23.042;2023-11-21T23:50:59;94170.44;;;7.41;100.00
20013;BME280;10167;42.852;23.042;2023-11-21T23:53:30;94165.16;;;7.41;100.00
20013;BME280;10167;42.852;23.042;2023-11-21T23:56:00;94167.78;;;7.41;100.00
20013;BME280;10167;42.852;23.042;2023-11-21T23:58:31;94165.72;;;7.43;100.00
